createdAt,value
2022-11-25T00:01:22.390Z,8.94
2022-11-25T00:03:49.954Z,9.15
2022-11-25T00:06:27.911Z,8.88
2022-11-25T00:08:57.183Z,9.10
2022-11-25T00:11:24.068Z,8.80
2022-11-25T00:13:51.332Z,8.99
2022-11-25T00:16:19.967Z,9.25
2022-11-25T00:18:48.229Z,9.22
2022-11-25T00:21:16.923Z,8.56
2022-11-25T00:23:44.210Z,9.42
2022-11-25T00:26:15.663Z,9.01
2022-11-25T00:28:44.429Z,8.86
2022-11-25T00:31:16.864Z,9.18
2022-11-25T00:33:44.058Z,9.42
2022-11-25T00:36:17.782Z,9.44
2022-11-25T00:38:44.922Z,9.18
2022-11-25T00:41:30.396Z,8.40
2022-11-25T00:44:15.831Z,9.00
2022-11-25T00:46:43.196Z,9.39
2022-11-25T00:49:10.077Z,9.20
2022-11-25T00:51:36.976Z,7.46
2022-11-25T00:54:03.989Z,9.12
2022-11-25T00:56:30.868Z,8.85
2022-11-25T00:58:57.776Z,9.29
2022-11-25T01:01:24.980Z,9.02
2022-11-25T01:03:52.678Z,9.26
2022-11-25T01:06:19.817Z,9.02
2022-11-25T01:08:46.852Z,9.01
2022-11-25T01:11:16.546Z,8.40
2022-11-25T01:13:46.397Z,8.24
2022-11-25T01:16:15.861Z,8.60
2022-11-25T01:18:44.105Z,9.19
2022-11-25T01:21:13.130Z,8.85
2022-11-25T01:23:41.153Z,8.86
2022-11-25T01:26:13.976Z,8.54
2022-11-25T01:28:40.925Z,8.76
2022-11-25T01:31:14.496Z,8.65
2022-11-25T01:33:41.901Z,8.93
2022-11-25T01:36:11.016Z,8.55
2022-11-25T01:38:38.916Z,8.90
2022-11-25T01:41:08.884Z,9.14
2022-11-25T01:43:35.868Z,8.76
2022-11-25T01:46:09.084Z,8.56
2022-11-25T01:48:50.058Z,8.81
2022-11-25T01:52:03.331Z,9.11
2022-11-25T01:54:34.673Z,8.28
2022-11-25T01:57:14.386Z,8.58
2022-11-25T01:59:44.436Z,8.82
2022-11-25T02:02:17.828Z,9.07
2022-11-25T02:04:44.867Z,8.31
2022-11-25T02:07:15.908Z,7.47
2022-11-25T02:09:42.984Z,8.33
2022-11-25T02:12:09.895Z,8.69
2022-11-25T02:14:37.068Z,8.39
2022-11-25T02:17:04.157Z,8.44
2022-11-25T02:19:57.224Z,9.06
2022-11-25T02:22:45.617Z,8.54
2022-11-25T02:25:21.128Z,8.92
2022-11-25T02:27:49.498Z,7.85
2022-11-25T02:30:17.036Z,8.59
2022-11-25T02:32:48.115Z,8.42
2022-11-25T02:35:21.897Z,8.83
2022-11-25T02:37:48.778Z,7.67
2022-11-25T02:40:15.898Z,9.02
2022-11-25T02:42:42.812Z,8.00
2022-11-25T02:45:10.455Z,8.39
2022-11-25T02:47:37.344Z,7.57
2022-11-25T02:50:05.138Z,8.62
2022-11-25T02:52:32.024Z,8.76
2022-11-25T02:54:58.959Z,8.54
2022-11-25T02:57:25.921Z,8.78
2022-11-25T02:59:52.958Z,8.79
2022-11-25T03:02:19.920Z,8.31
2022-11-25T03:04:47.200Z,8.21
2022-11-25T03:07:14.177Z,8.40
2022-11-25T03:09:41.097Z,7.96
2022-11-25T03:12:20.039Z,8.33
2022-11-25T03:14:47.769Z,8.05
2022-11-25T03:17:14.892Z,8.94
2022-11-25T03:19:41.795Z,8.20
2022-11-25T03:22:08.701Z,8.52
2022-11-25T03:24:35.954Z,8.73
2022-11-25T03:27:03.097Z,8.97
2022-11-25T03:29:30.110Z,8.39
2022-11-25T03:31:57.066Z,8.53
2022-11-25T03:34:24.031Z,7.66
2022-11-25T03:36:51.063Z,8.69
2022-11-25T03:39:18.003Z,8.94
2022-11-25T03:41:44.884Z,7.74
2022-11-25T03:44:11.859Z,8.93
2022-11-25T03:46:38.770Z,8.20
2022-11-25T03:49:05.662Z,8.58
2022-11-25T03:51:32.540Z,8.94
2022-11-25T03:53:59.622Z,8.61
2022-11-25T03:56:26.686Z,8.57
2022-11-25T03:58:53.577Z,7.87
2022-11-25T04:01:20.564Z,7.74
2022-11-25T04:03:47.456Z,8.23
2022-11-25T04:06:14.349Z,8.09
2022-11-25T04:08:41.221Z,9.05
2022-11-25T04:11:08.123Z,7.77
2022-11-25T04:13:35.153Z,8.66
2022-11-25T04:16:02.031Z,9.04
2022-11-25T04:18:28.939Z,8.23
2022-11-25T04:20:55.981Z,8.62
2022-11-25T04:23:22.925Z,8.66
2022-11-25T04:25:52.333Z,8.46
2022-11-25T04:28:19.250Z,8.55
2022-11-25T04:30:46.183Z,8.36
2022-11-25T04:33:13.115Z,8.18
2022-11-25T04:35:39.991Z,8.79
2022-11-25T04:38:06.863Z,8.57
2022-11-25T04:40:33.749Z,8.84
2022-11-25T04:43:06.036Z,9.02
2022-11-25T04:45:51.839Z,9.03
2022-11-25T04:48:22.961Z,9.04
2022-11-25T04:50:49.879Z,9.05
2022-11-25T04:53:19.739Z,8.47
2022-11-25T04:55:47.028Z,8.45
2022-11-25T04:58:13.956Z,7.77
2022-11-25T05:00:41.388Z,8.93
2022-11-25T05:03:08.411Z,8.69
2022-11-25T05:05:35.296Z,8.70
2022-11-25T05:08:02.220Z,8.31
2022-11-25T05:10:29.097Z,8.48
2022-11-25T05:12:59.019Z,8.78
2022-11-25T05:15:28.876Z,9.13
2022-11-25T05:17:55.940Z,8.10
2022-11-25T05:20:22.824Z,8.43
2022-11-25T05:22:49.709Z,7.71
2022-11-25T05:25:16.885Z,8.65
2022-11-25T05:27:43.836Z,8.43
2022-11-25T05:30:10.941Z,8.74
2022-11-25T05:32:38.015Z,8.07
2022-11-25T05:35:05.011Z,8.85
2022-11-25T05:37:32.001Z,8.84
2022-11-25T05:39:58.881Z,8.96
2022-11-25T05:42:31.450Z,9.09
2022-11-25T05:45:00.334Z,8.28
2022-11-25T05:47:27.224Z,8.40
2022-11-25T05:49:55.530Z,8.63
2022-11-25T05:52:22.421Z,9.04
2022-11-25T05:54:51.260Z,8.19
2022-11-25T05:57:24.522Z,9.00
2022-11-25T05:59:51.441Z,8.53
2022-11-25T06:02:18.399Z,8.54
2022-11-25T06:04:47.378Z,8.03
2022-11-25T06:07:14.408Z,8.32
2022-11-25T06:09:42.849Z,8.68
2022-11-25T06:12:12.538Z,8.29
2022-11-25T06:14:39.481Z,7.81
2022-11-25T06:17:06.366Z,8.62
2022-11-25T06:19:33.272Z,8.09
2022-11-25T06:22:00.312Z,8.48
2022-11-25T06:24:27.268Z,8.59
2022-11-25T06:26:54.147Z,8.60
2022-11-25T06:29:21.027Z,8.59
2022-11-25T06:31:49.600Z,8.58
2022-11-25T06:34:19.458Z,8.06
2022-11-25T06:36:49.671Z,8.34
2022-11-25T06:39:17.046Z,3.64
2022-11-25T06:41:43.942Z,8.46
2022-11-25T06:44:10.816Z,7.33
2022-11-25T06:46:37.789Z,8.69
2022-11-25T06:49:04.953Z,8.22
2022-11-25T06:51:31.850Z,8.22
2022-11-25T06:53:58.931Z,7.86
2022-11-25T06:56:27.764Z,8.21
2022-11-25T06:58:55.925Z,8.22
2022-11-25T07:01:25.180Z,8.59
2022-11-25T07:03:56.968Z,8.10
2022-11-25T07:06:24.208Z,8.33
2022-11-25T07:08:51.553Z,7.40
2022-11-25T07:11:21.479Z,8.32
2022-11-25T07:13:51.283Z,8.13
2022-11-25T07:16:18.248Z,7.96
2022-11-25T07:18:45.783Z,8.33
2022-11-25T07:21:21.206Z,8.16
2022-11-25T07:23:49.899Z,7.98
2022-11-25T07:26:17.030Z,8.52
2022-11-25T07:28:44.255Z,8.15
2022-11-25T07:31:24.300Z,8.53
2022-11-25T07:33:55.998Z,7.99
2022-11-25T07:36:23.325Z,7.64
2022-11-25T07:38:50.219Z,8.19
2022-11-25T07:41:21.935Z,8.47
2022-11-25T07:43:51.139Z,7.89
2022-11-25T07:46:27.706Z,7.98
2022-11-25T07:48:57.250Z,7.79
2022-11-25T07:51:32.458Z,7.98
2022-11-25T07:54:00.693Z,8.17
2022-11-25T07:56:28.710Z,7.77
2022-11-25T07:58:56.057Z,7.35
2022-11-25T08:01:23.041Z,7.75
2022-11-25T08:03:50.790Z,8.42
2022-11-25T08:06:22.767Z,7.75
2022-11-25T08:08:50.619Z,8.22
2022-11-25T08:11:19.791Z,8.20
2022-11-25T08:13:47.099Z,8.42
2022-11-25T08:16:18.652Z,7.70
2022-11-25T08:18:45.670Z,7.99
2022-11-25T08:21:14.426Z,7.82
2022-11-25T08:23:43.348Z,7.82
2022-11-25T08:26:12.871Z,8.42
2022-11-25T08:28:41.449Z,8.43
2022-11-25T08:31:13.745Z,8.01
2022-11-25T08:33:40.740Z,7.67
2022-11-25T08:36:08.048Z,8.16
2022-11-25T08:38:35.070Z,7.92
2022-11-25T08:41:01.977Z,8.46
2022-11-25T08:43:29.755Z,7.05
2022-11-25T08:45:56.872Z,7.78
2022-11-25T08:48:23.871Z,7.23
2022-11-25T08:50:52.573Z,8.30
2022-11-25T08:53:20.166Z,7.76
2022-11-25T08:55:57.618Z,8.08
2022-11-25T08:58:24.565Z,8.59
2022-11-25T09:00:51.472Z,7.82
2022-11-25T09:03:18.508Z,7.79
2022-11-25T09:05:53.238Z,8.34
2022-11-25T09:08:20.856Z,8.73
2022-11-25T09:10:47.904Z,8.19
2022-11-25T09:13:14.905Z,8.24
2022-11-25T09:15:41.889Z,7.89
2022-11-25T09:18:09.544Z,8.77
2022-11-25T09:20:38.500Z,8.11
2022-11-25T09:23:06.119Z,8.78
2022-11-25T09:25:33.224Z,8.99
2022-11-25T09:28:00.161Z,8.85
2022-11-25T09:30:27.221Z,9.31
2022-11-25T09:32:55.044Z,9.26
2022-11-25T09:35:22.618Z,8.71
2022-11-25T09:37:49.564Z,9.49
2022-11-25T09:40:20.663Z,9.53
2022-11-25T09:43:15.685Z,9.58
2022-11-25T09:46:09.208Z,8.93
2022-11-25T09:48:38.985Z,9.72
2022-11-25T09:51:37.310Z,9.46
2022-11-25T09:54:13.250Z,9.06
2022-11-25T09:56:53.614Z,9.92
2022-11-25T09:59:35.488Z,10.00
2022-11-25T10:02:03.975Z,8.92
2022-11-25T10:04:34.643Z,9.73
2022-11-25T10:07:02.632Z,9.93
2022-11-25T10:09:32.220Z,9.50
2022-11-25T10:12:04.039Z,10.23
2022-11-25T10:14:47.576Z,9.88
2022-11-25T10:17:38.684Z,10.38
2022-11-25T10:20:17.573Z,10.40
2022-11-25T10:22:46.103Z,9.90
2022-11-25T10:25:22.759Z,10.19
2022-11-25T10:28:02.768Z,10.57
2022-11-25T10:30:47.162Z,10.25
2022-11-25T10:33:18.133Z,10.64
2022-11-25T10:36:00.045Z,10.67
2022-11-25T10:38:50.555Z,10.30
2022-11-25T10:41:19.055Z,10.68
2022-11-25T10:43:47.047Z,10.29
2022-11-25T10:47:11.522Z,10.76
2022-11-25T10:49:36.525Z,10.77
2022-11-25T10:52:10.384Z,10.79
2022-11-25T10:54:37.345Z,10.83
2022-11-25T10:57:04.875Z,10.89
2022-11-25T10:59:33.106Z,10.91
2022-11-25T11:02:22.223Z,10.91
2022-11-25T11:05:02.780Z,10.86
2022-11-25T11:07:35.555Z,10.63
2022-11-25T11:10:14.523Z,10.84
2022-11-25T11:12:59.726Z,10.85
2022-11-25T11:15:47.478Z,10.87
2022-11-25T11:18:37.697Z,10.78
2022-11-25T11:21:06.447Z,10.11
2022-11-25T11:23:51.388Z,10.78
2022-11-25T11:26:27.561Z,10.57
2022-11-25T11:29:11.218Z,9.67
2022-11-25T11:31:51.983Z,9.92
2022-11-25T11:34:43.863Z,10.97
2022-11-25T11:37:22.860Z,11.01
2022-11-25T11:40:03.923Z,10.81
2022-11-25T11:43:02.413Z,11.04
2022-11-25T11:45:54.274Z,11.06
2022-11-25T11:48:26.681Z,11.09
2022-11-25T11:51:00.691Z,10.77
2022-11-25T11:53:44.051Z,10.80
2022-11-25T11:56:34.929Z,11.14
2022-11-25T11:59:26.779Z,11.15
2022-11-25T12:02:21.244Z,10.53
2022-11-25T12:05:13.332Z,11.15
2022-11-25T12:08:00.236Z,11.13
2022-11-25T12:10:31.228Z,11.14
2022-11-25T12:13:21.238Z,9.78
2022-11-25T12:16:06.359Z,10.79
2022-11-25T12:18:42.244Z,10.85
2022-11-25T12:21:19.243Z,11.07
2022-11-25T12:23:56.443Z,11.10
2022-11-25T12:26:27.723Z,10.98
2022-11-25T12:29:03.271Z,11.01
2022-11-25T12:31:39.013Z,11.24
2022-11-25T12:34:36.518Z,11.25
2022-11-25T12:37:13.440Z,11.25
2022-11-25T12:39:50.371Z,11.39
2022-11-25T12:42:21.733Z,11.46
2022-11-25T12:44:51.519Z,11.51
2022-11-25T12:47:18.414Z,11.29
2022-11-25T12:49:46.903Z,11.17
2022-11-25T12:52:48.854Z,11.60
2022-11-25T12:55:28.942Z,11.29
2022-11-25T12:58:30.173Z,11.66
2022-11-25T13:01:19.916Z,11.11
2022-11-25T13:04:13.608Z,11.66
2022-11-25T13:06:57.623Z,11.65
2022-11-25T13:09:44.658Z,11.66
2022-11-25T13:12:24.085Z,11.54
2022-11-25T13:15:10.425Z,11.73
2022-11-25T13:17:42.043Z,11.34
2022-11-25T13:20:27.138Z,11.73
2022-11-25T13:23:07.772Z,11.76
2022-11-25T13:25:35.741Z,11.20
2022-11-25T13:28:04.588Z,10.52
2022-11-25T13:30:34.464Z,11.74
2022-11-25T13:33:13.533Z,11.74
2022-11-25T13:35:43.258Z,11.72
2022-11-25T13:38:58.883Z,11.69
2022-11-25T13:41:37.939Z,11.23
2022-11-25T13:44:19.399Z,11.66
2022-11-25T13:46:55.925Z,11.10
2022-11-25T13:50:21.596Z,11.67
2022-11-25T13:53:24.782Z,11.40
2022-11-25T13:55:54.958Z,10.90
2022-11-25T13:58:27.051Z,11.02
2022-11-25T14:01:29.596Z,10.39
2022-11-25T14:04:00.328Z,11.14
2022-11-25T14:06:51.379Z,11.32
2022-11-25T14:09:30.141Z,11.66
2022-11-25T14:12:33.084Z,11.64
2022-11-25T14:15:36.895Z,11.64
2022-11-25T14:18:51.215Z,11.64
2022-11-25T14:21:38.462Z,11.42
2022-11-25T14:24:42.201Z,11.37
2022-11-25T14:27:28.673Z,11.43
2022-11-25T14:30:07.814Z,11.00
2022-11-25T14:33:05.486Z,11.46
2022-11-25T14:35:45.387Z,10.80
2022-11-25T14:38:45.704Z,11.49
2022-11-25T14:41:31.991Z,11.46
2022-11-25T14:44:04.907Z,11.44
2022-11-25T14:46:31.930Z,11.41
2022-11-25T14:49:18.990Z,11.05
2022-11-25T14:51:54.597Z,10.78
2022-11-25T14:54:21.942Z,11.01
2022-11-25T14:56:49.234Z,10.56
2022-11-25T14:59:16.133Z,11.09
2022-11-25T15:01:54.458Z,10.75
2022-11-25T15:04:25.692Z,10.96
2022-11-25T15:06:54.615Z,10.68
2022-11-25T15:09:24.683Z,11.21
2022-11-25T15:12:12.891Z,10.82
2022-11-25T15:14:41.593Z,10.94
2022-11-25T15:17:20.948Z,10.44
2022-11-25T15:19:47.831Z,10.64
2022-11-25T15:22:23.085Z,10.62
2022-11-25T15:24:55.500Z,10.79
2022-11-25T15:27:27.865Z,10.98
2022-11-25T15:29:56.179Z,10.56
2022-11-25T15:32:28.890Z,10.74
2022-11-25T15:34:57.486Z,10.34
2022-11-25T15:37:26.908Z,10.61
2022-11-25T15:40:32.151Z,10.85
2022-11-25T15:43:05.685Z,10.44
2022-11-25T15:45:45.752Z,10.13
2022-11-25T15:48:33.792Z,10.60
2022-11-25T15:51:06.361Z,10.31
2022-11-25T15:53:37.025Z,10.33
2022-11-25T15:56:05.229Z,10.65
2022-11-25T15:58:32.141Z,9.98
2022-11-25T16:01:17.442Z,10.60
2022-11-25T16:03:45.671Z,10.19
2022-11-25T16:06:51.492Z,10.53
2022-11-25T16:09:20.767Z,10.51
2022-11-25T16:11:47.689Z,10.48
2022-11-25T16:14:28.863Z,9.96
2022-11-25T16:17:01.300Z,10.05
2022-11-25T16:19:48.485Z,10.12
2022-11-25T16:22:17.360Z,9.76
2022-11-25T16:26:40.956Z,10.35
2022-11-25T16:27:53.399Z,10.14
2022-11-25T16:30:23.406Z,9.80
2022-11-25T16:32:50.293Z,10.10
2022-11-25T16:35:21.113Z,9.94
2022-11-25T16:37:49.590Z,9.35
2022-11-25T16:40:56.112Z,10.18
2022-11-25T16:43:24.062Z,8.97
2022-11-25T16:45:51.703Z,7.46
2022-11-25T16:48:21.061Z,9.78
2022-11-25T16:50:51.496Z,9.67
2022-11-25T16:53:18.986Z,9.64
2022-11-25T16:55:47.188Z,10.05
2022-11-25T16:58:22.606Z,9.64
2022-11-25T17:00:56.372Z,9.52
2022-11-25T17:03:26.820Z,9.03
2022-11-25T17:05:58.129Z,9.80
2022-11-25T17:08:25.218Z,8.83
2022-11-25T17:10:52.227Z,9.80
2022-11-25T17:13:21.850Z,9.59
2022-11-25T17:15:49.164Z,9.20
2022-11-25T17:18:19.399Z,9.45
2022-11-25T17:20:47.024Z,9.77
2022-11-25T17:23:16.962Z,9.96
2022-11-25T17:25:48.606Z,9.55
2022-11-25T17:28:19.479Z,9.61
2022-11-25T17:30:49.598Z,9.95
2022-11-25T17:33:18.696Z,9.93
2022-11-25T17:35:46.099Z,9.80
2022-11-25T17:38:17.687Z,9.86
2022-11-25T17:40:44.656Z,9.66
2022-11-25T17:43:16.808Z,9.91
2022-11-25T17:45:44.591Z,9.34
2022-11-25T17:48:18.341Z,9.62
2022-11-25T17:50:46.948Z,9.60
2022-11-25T17:53:13.839Z,9.61
2022-11-25T17:55:40.752Z,9.57
2022-11-25T17:58:10.214Z,9.76
2022-11-25T18:00:37.101Z,9.06
2022-11-25T18:03:09.567Z,9.31
2022-11-25T18:05:36.467Z,9.08
2022-11-25T18:08:03.588Z,9.38
2022-11-25T18:10:30.510Z,9.55
2022-11-25T18:12:57.472Z,8.88
2022-11-25T18:15:29.901Z,9.05
2022-11-25T18:18:02.304Z,9.43
2022-11-25T18:20:31.210Z,8.98
2022-11-25T18:22:58.812Z,8.46
2022-11-25T18:25:27.846Z,9.09
2022-11-25T18:27:56.435Z,9.09
2022-11-25T18:30:30.514Z,8.84
2022-11-25T18:32:57.518Z,7.98
2022-11-25T18:35:35.486Z,9.18
2022-11-25T18:38:03.607Z,8.94
2022-11-25T18:40:30.511Z,8.64
2022-11-25T18:42:58.230Z,8.57
2022-11-25T18:45:36.748Z,8.93
2022-11-25T18:48:23.089Z,9.11
2022-11-25T18:50:52.414Z,8.74
2022-11-25T18:53:19.743Z,8.71
2022-11-25T18:55:48.251Z,8.52
2022-11-25T18:58:35.509Z,9.02
2022-11-25T19:01:12.757Z,8.81
2022-11-25T19:03:39.840Z,8.20
2022-11-25T19:06:07.131Z,8.69
2022-11-25T19:08:34.178Z,8.66
2022-11-25T19:11:01.120Z,8.68
2022-11-25T19:13:33.225Z,8.40
2022-11-25T19:16:12.237Z,8.13
2022-11-25T19:18:39.349Z,8.77
2022-11-25T19:21:06.348Z,8.14
2022-11-25T19:23:36.098Z,8.67
2022-11-25T19:26:07.671Z,8.42
2022-11-25T19:28:34.639Z,8.35
2022-11-25T19:31:04.587Z,8.26
2022-11-25T19:33:34.530Z,8.26
2022-11-25T19:36:01.536Z,8.19
2022-11-25T19:38:29.800Z,7.23
2022-11-25T19:40:57.116Z,7.29
2022-11-25T19:43:27.102Z,7.55
2022-11-25T19:45:57.505Z,8.09
2022-11-25T19:48:29.693Z,7.94
2022-11-25T19:50:59.997Z,7.44
2022-11-25T19:53:33.085Z,7.45
2022-11-25T19:56:04.259Z,7.89
2022-11-25T19:58:31.655Z,7.95
2022-11-25T20:01:02.227Z,7.47
2022-11-25T20:03:32.654Z,8.01
2022-11-25T20:06:02.340Z,7.94
2022-11-25T20:08:29.358Z,7.69
2022-11-25T20:10:56.533Z,7.59
2022-11-25T20:13:27.652Z,7.56
2022-11-25T20:15:55.255Z,7.85
2022-11-25T20:18:23.006Z,7.84
2022-11-25T20:20:53.777Z,7.85
2022-11-25T20:23:32.664Z,7.94
2022-11-25T20:25:59.970Z,7.39
2022-11-25T20:28:28.764Z,7.86
2022-11-25T20:31:01.537Z,8.24
2022-11-25T20:33:28.582Z,8.25
2022-11-25T20:36:11.119Z,8.25
2022-11-25T20:38:38.064Z,7.60
2022-11-25T20:41:05.643Z,7.60
2022-11-25T20:43:39.004Z,7.93
2022-11-25T20:46:07.088Z,7.74
2022-11-25T20:48:37.501Z,8.01
2022-11-25T20:51:07.181Z,8.19
2022-11-25T20:53:34.061Z,7.94
2022-11-25T20:56:01.090Z,7.31
2022-11-25T20:58:30.064Z,7.79
2022-11-25T21:00:57.972Z,8.12
2022-11-25T21:03:26.091Z,8.09
2022-11-25T21:05:53.598Z,7.46
2022-11-25T21:08:23.123Z,7.83
2022-11-25T21:10:58.206Z,7.59
2022-11-25T21:13:27.061Z,8.02
2022-11-25T21:15:56.563Z,7.48
2022-11-25T21:18:23.788Z,7.35
2022-11-25T21:20:52.039Z,7.29
2022-11-25T21:23:23.855Z,7.23
2022-11-25T21:25:50.751Z,7.33
2022-11-25T21:28:19.688Z,7.13
2022-11-25T21:30:47.269Z,7.71
2022-11-25T21:33:14.683Z,6.93
2022-11-25T21:35:42.697Z,7.65
2022-11-25T21:38:22.953Z,7.57
2022-11-25T21:40:52.452Z,7.15
2022-11-25T21:43:27.540Z,7.77
2022-11-25T21:46:02.259Z,6.45
2022-11-25T21:48:29.744Z,7.04
2022-11-25T21:50:56.653Z,6.94
2022-11-25T21:53:23.723Z,7.03
2022-11-25T21:55:50.602Z,7.40
2022-11-25T21:58:32.459Z,7.59
2022-11-25T22:01:03.504Z,7.15
2022-11-25T22:03:31.224Z,7.51
2022-11-25T22:05:58.189Z,7.27
2022-11-25T22:08:25.291Z,6.86
2022-11-25T22:10:54.627Z,7.50
2022-11-25T22:13:38.669Z,7.51
2022-11-25T22:16:06.119Z,5.38
2022-11-25T22:18:38.386Z,5.73
2022-11-25T22:21:11.907Z,7.49
2022-11-25T22:23:42.235Z,6.87
2022-11-25T22:26:27.296Z,7.26
2022-11-25T22:28:54.214Z,6.23
2022-11-25T22:31:21.393Z,7.44
2022-11-25T22:33:48.363Z,7.02
2022-11-25T22:36:34.286Z,7.04
2022-11-25T22:39:21.045Z,7.40
2022-11-25T22:41:51.861Z,6.50
2022-11-25T22:44:31.321Z,7.17
2022-11-25T22:46:59.682Z,6.49
2022-11-25T22:49:49.560Z,6.48
2022-11-25T22:52:24.156Z,7.32
2022-11-25T22:54:51.345Z,6.29
2022-11-25T22:57:18.463Z,7.04
2022-11-25T22:59:45.626Z,6.87
2022-11-25T23:02:19.798Z,7.22
2022-11-25T23:04:53.355Z,6.80
2022-11-25T23:07:23.164Z,6.51
2022-11-25T23:09:50.523Z,7.24
2022-11-25T23:12:17.572Z,6.74
2022-11-25T23:14:44.435Z,6.93
2022-11-25T23:17:24.638Z,7.20
2022-11-25T23:19:51.658Z,6.62
2022-11-25T23:22:19.310Z,6.62
2022-11-25T23:24:47.808Z,7.18
2022-11-25T23:27:17.792Z,7.18
2022-11-25T23:29:45.176Z,6.64
2022-11-25T23:32:17.124Z,7.15
2022-11-25T23:34:44.093Z,6.98
2022-11-25T23:37:12.957Z,6.77
2022-11-25T23:39:39.825Z,6.20
2022-11-25T23:42:17.800Z,7.15
2022-11-25T23:44:44.769Z,6.85
2022-11-25T23:47:17.617Z,7.00
2022-11-25T23:49:47.784Z,6.93
2022-11-25T23:52:17.253Z,6.57
2022-11-25T23:54:46.629Z,7.07
2022-11-25T23:57:15.727Z,7.05
2022-11-25T23:59:42.965Z,6.84
